createdAt,value
2018-06-29T00:00:41.230Z,67.36
2018-06-29T00:01:41.472Z,66.59
2018-06-29T00:02:41.705Z,67.07
2018-06-29T00:03:41.938Z,67.16
2018-06-29T00:04:42.175Z,66.78
2018-06-29T00:05:42.408Z,67.16
2018-06-29T00:06:42.646Z,67.42
2018-06-29T00:07:42.875Z,67.52
2018-06-29T00:08:43.113Z,68.19
2018-06-29T00:09:43.338Z,67.81
2018-06-29T00:10:43.571Z,68.48
2018-06-29T00:11:43.806Z,67.61
2018-06-29T00:12:44.037Z,68.87
2018-06-29T00:13:44.275Z,68.10
2018-06-29T00:14:44.507Z,68.68
2018-06-29T00:15:44.735Z,68.87
2018-06-29T00:16:44.968Z,68.74
2018-06-29T00:17:45.199Z,69.12
2018-06-29T00:18:45.430Z,69.31
2018-06-29T00:19:45.663Z,69.31
2018-06-29T00:20:45.897Z,69.60
2018-06-29T00:21:46.132Z,69.41
2018-06-29T00:22:46.363Z,69.51
2018-06-29T00:23:46.593Z,69.12
2018-06-29T00:24:46.826Z,69.41
2018-06-29T00:25:47.057Z,69.31
2018-06-29T00:26:47.297Z,69.41
2018-06-29T00:27:47.533Z,69.31
2018-06-29T00:28:47.758Z,69.57
2018-06-29T00:29:48.100Z,69.41
2018-06-29T00:30:48.223Z,69.67
2018-06-29T00:31:48.455Z,69.67
2018-06-29T00:32:48.693Z,70.34
2018-06-29T00:33:48.916Z,69.76
2018-06-29T00:34:49.155Z,69.85
2018-06-29T00:35:49.384Z,69.85
2018-06-29T00:36:49.618Z,69.89
2018-06-29T00:37:49.851Z,69.76
2018-06-29T00:38:50.080Z,69.09
2018-06-29T00:39:50.314Z,68.99
2018-06-29T00:40:50.544Z,68.99
2018-06-29T00:41:50.778Z,69.09
2018-06-29T00:42:51.009Z,68.99
2018-06-29T00:43:51.243Z,68.80
2018-06-29T00:44:51.474Z,69.09
2018-06-29T00:45:51.734Z,68.90
2018-06-29T00:46:51.935Z,68.60
2018-06-29T00:47:52.172Z,68.51
2018-06-29T00:48:52.403Z,69.18
2018-06-29T00:49:52.634Z,69.28
2018-06-29T00:50:52.865Z,69.09
2018-06-29T00:51:53.096Z,70.15
2018-06-29T00:52:53.328Z,69.85
2018-06-29T00:53:53.554Z,70.53
2018-06-29T00:54:53.787Z,70.43
2018-06-29T00:55:54.021Z,70.62
2018-06-29T00:56:54.251Z,70.68
2018-06-29T00:57:54.484Z,70.43
2018-06-29T00:58:54.713Z,70.43
2018-06-29T00:59:54.942Z,70.53
2018-06-29T01:00:55.173Z,71.20
2018-06-29T01:01:55.405Z,70.24
2018-06-29T01:02:55.661Z,70.92
2018-06-29T01:03:55.917Z,70.34
2018-06-29T01:04:56.144Z,70.40
2018-06-29T01:05:56.381Z,70.62
2018-06-29T01:06:56.604Z,70.40
2018-06-29T01:07:56.829Z,70.43
2018-06-29T01:08:57.075Z,70.68
2018-06-29T01:09:57.308Z,71.17
2018-06-29T01:10:57.544Z,72.03
2018-06-29T01:11:57.767Z,71.46
2018-06-29T01:12:58.002Z,71.65
2018-06-29T01:13:58.233Z,71.26
2018-06-29T01:14:58.469Z,71.36
2018-06-29T01:15:58.708Z,72.23
2018-06-29T01:16:58.930Z,72.03
2018-06-29T01:17:59.165Z,72.03
2018-06-29T01:18:59.397Z,72.03
2018-06-29T01:19:59.629Z,72.03
2018-06-29T01:20:59.862Z,71.46
2018-06-29T01:22:00.095Z,71.46
2018-06-29T01:23:00.329Z,71.17
2018-06-29T01:24:00.555Z,71.75
2018-06-29T01:25:00.805Z,71.26
2018-06-29T01:26:01.034Z,71.36
2018-06-29T01:27:01.265Z,71.36
2018-06-29T01:28:01.498Z,72.03
2018-06-29T01:29:01.727Z,71.75
2018-06-29T01:30:01.971Z,72.03
2018-06-29T01:31:02.188Z,72.32
2018-06-29T01:32:02.426Z,71.46
2018-06-29T01:33:02.658Z,71.36
2018-06-29T01:34:02.894Z,70.98
2018-06-29T01:35:03.128Z,71.08
2018-06-29T01:36:03.353Z,71.46
2018-06-29T01:37:03.584Z,72.23
2018-06-29T01:38:03.816Z,72.23
2018-06-29T01:39:04.049Z,71.36
2018-06-29T01:40:04.279Z,71.65
2018-06-29T01:41:04.514Z,71.36
2018-06-29T01:42:04.745Z,71.26
2018-06-29T01:43:04.977Z,71.94
2018-06-29T01:44:05.208Z,71.75
2018-06-29T01:45:05.442Z,71.94
2018-06-29T01:46:05.676Z,71.94
2018-06-29T01:47:05.905Z,71.84
2018-06-29T01:48:06.137Z,71.94
2018-06-29T01:49:06.367Z,71.84
2018-06-29T01:50:06.597Z,71.94
2018-06-29T01:51:06.829Z,72.17
2018-06-29T01:52:07.113Z,72.07
2018-06-29T01:53:07.295Z,71.97
2018-06-29T01:54:07.528Z,71.26
2018-06-29T01:55:07.762Z,72.26
2018-06-29T01:56:07.993Z,72.17
2018-06-29T01:57:08.227Z,71.84
2018-06-29T01:58:08.455Z,72.07
2018-06-29T01:59:08.689Z,71.97
2018-06-29T02:00:08.920Z,72.13
2018-06-29T02:01:09.152Z,72.23
2018-06-29T02:02:09.384Z,71.55
2018-06-29T02:03:09.616Z,72.26
2018-06-29T02:04:09.847Z,71.40
2018-06-29T02:05:10.079Z,71.78
2018-06-29T02:06:10.310Z,72.45
2018-06-29T02:07:10.544Z,72.36
2018-06-29T02:08:10.776Z,72.13
2018-06-29T02:09:11.008Z,71.94
2018-06-29T02:10:11.239Z,71.97
2018-06-29T02:11:11.469Z,71.36
2018-06-29T02:12:11.702Z,72.23
2018-06-29T02:13:11.935Z,71.94
2018-06-29T02:14:12.164Z,71.94
2018-06-29T02:15:12.403Z,71.75
2018-06-29T02:16:12.626Z,72.23
2018-06-29T02:17:12.861Z,72.42
2018-06-29T02:18:13.089Z,72.52
2018-06-29T02:19:13.324Z,72.71
2018-06-29T02:20:13.553Z,73.38
2018-06-29T02:21:13.786Z,72.61
2018-06-29T02:22:14.017Z,72.23
2018-06-29T02:23:14.246Z,71.84
2018-06-29T02:24:14.476Z,72.03
2018-06-29T02:25:14.715Z,71.26
2018-06-29T02:26:14.947Z,71.46
2018-06-29T02:27:15.180Z,71.26
2018-06-29T02:28:15.411Z,71.55
2018-06-29T02:29:15.647Z,71.26
2018-06-29T02:30:15.880Z,71.46
2018-06-29T02:31:16.106Z,70.30
2018-06-29T02:32:16.335Z,71.17
2018-06-29T02:33:16.585Z,70.98
2018-06-29T02:34:16.802Z,70.50
2018-06-29T02:35:17.033Z,70.59
2018-06-29T02:36:17.269Z,71.46
2018-06-29T02:37:17.498Z,71.17
2018-06-29T02:38:17.731Z,71.08
2018-06-29T02:39:17.981Z,71.36
2018-06-29T02:40:18.231Z,71.46
2018-06-29T02:41:18.474Z,70.59
2018-06-29T02:42:18.700Z,70.40
2018-06-29T02:43:18.933Z,70.30
2018-06-29T02:44:19.172Z,70.88
2018-06-29T02:45:19.401Z,70.11
2018-06-29T02:46:19.635Z,70.68
2018-06-29T02:47:19.875Z,70.21
2018-06-29T02:48:20.108Z,70.78
2018-06-29T02:49:20.337Z,71.08
2018-06-29T02:50:20.568Z,71.08
2018-06-29T02:51:20.790Z,71.08
2018-06-29T02:52:21.031Z,70.30
2018-06-29T02:53:21.251Z,70.59
2018-06-29T02:54:21.484Z,71.08
2018-06-29T02:55:21.720Z,71.17
2018-06-29T02:56:21.952Z,71.75
2018-06-29T02:57:22.186Z,71.36
2018-06-29T02:58:22.414Z,71.36
2018-06-29T02:59:22.648Z,71.36
2018-06-29T03:00:22.879Z,71.26
2018-06-29T03:01:23.111Z,72.03
2018-06-29T03:02:23.347Z,71.94
2018-06-29T03:03:23.576Z,71.94
2018-06-29T03:04:23.810Z,72.13
2018-06-29T03:05:24.041Z,71.46
2018-06-29T03:06:24.272Z,71.46
2018-06-29T03:07:24.503Z,71.65
2018-06-29T03:08:24.739Z,71.26
2018-06-29T03:09:24.968Z,71.36
2018-06-29T03:10:25.201Z,71.36
2018-06-29T03:11:25.434Z,71.46
2018-06-29T03:12:25.669Z,71.36
2018-06-29T03:13:25.901Z,71.26
2018-06-29T03:14:26.134Z,71.26
2018-06-29T03:15:26.365Z,71.40
2018-06-29T03:16:26.597Z,71.40
2018-06-29T03:17:26.828Z,70.62
2018-06-29T03:18:27.071Z,70.24
2018-06-29T03:19:27.293Z,70.53
2018-06-29T03:20:27.531Z,70.72
2018-06-29T03:21:27.764Z,69.85
2018-06-29T03:22:27.993Z,69.85
2018-06-29T03:23:28.226Z,70.53
2018-06-29T03:24:28.455Z,70.82
2018-06-29T03:25:28.691Z,71.40
2018-06-29T03:26:28.923Z,71.11
2018-06-29T03:27:29.153Z,71.40
2018-06-29T03:28:29.394Z,70.53
2018-06-29T03:29:29.622Z,71.26
2018-06-29T03:30:29.853Z,71.40
2018-06-29T03:31:30.086Z,71.36
2018-06-29T03:32:30.323Z,71.49
2018-06-29T03:33:30.557Z,71.46
2018-06-29T03:34:30.794Z,71.01
2018-06-29T03:35:31.015Z,70.72
2018-06-29T03:36:31.231Z,70.82
2018-06-29T03:37:31.465Z,70.72
2018-06-29T03:38:31.697Z,71.36
2018-06-29T03:39:31.930Z,71.46
2018-06-29T03:40:32.255Z,71.30
2018-06-29T03:41:32.404Z,71.26
2018-06-29T03:42:32.630Z,72.03
2018-06-29T03:43:32.867Z,72.23
2018-06-29T03:44:33.096Z,71.75
2018-06-29T03:45:33.327Z,72.23
2018-06-29T03:46:33.562Z,71.84
2018-06-29T03:47:33.795Z,72.17
2018-06-29T03:48:34.029Z,71.40
2018-06-29T03:49:34.333Z,71.30
2018-06-29T03:50:34.500Z,71.59
2018-06-29T03:51:34.721Z,71.40
2018-06-29T03:52:34.959Z,71.40
2018-06-29T03:53:35.192Z,70.53
2018-06-29T03:54:35.423Z,70.82
2018-06-29T03:55:35.653Z,70.82
2018-06-29T03:56:35.889Z,70.53
2018-06-29T03:57:36.119Z,70.34
2018-06-29T03:58:36.362Z,70.24
2018-06-29T03:59:36.596Z,70.09
2018-06-29T04:00:36.827Z,69.45
2018-06-29T04:01:37.063Z,68.71
2018-06-29T04:02:37.297Z,66.24
2018-06-29T04:03:37.533Z,65.01
2018-06-29T04:04:37.764Z,63.24
2018-06-29T04:05:37.998Z,62.08
2018-06-29T04:06:38.233Z,60.96
2018-06-29T04:07:38.470Z,60.57
2018-06-29T04:08:38.703Z,60.50
2018-06-29T04:09:38.937Z,59.99
2018-06-29T04:10:39.168Z,59.92
2018-06-29T04:11:39.399Z,58.98
2018-06-29T04:12:39.644Z,58.44
2018-06-29T04:13:39.881Z,56.98
2018-06-29T04:14:40.108Z,56.62
2018-06-29T04:15:40.346Z,55.94
2018-06-29T04:16:40.581Z,55.78
2018-06-29T04:17:40.812Z,55.78
2018-06-29T04:18:41.051Z,54.94
2018-06-29T04:19:41.285Z,53.80
2018-06-29T04:20:41.521Z,53.02
2018-06-29T04:21:41.757Z,52.76
2018-06-29T04:22:41.996Z,52.54
2018-06-29T04:23:42.231Z,52.76
2018-06-29T04:24:42.470Z,52.11
2018-06-29T04:25:42.707Z,51.14
2018-06-29T04:26:42.940Z,51.62
2018-06-29T04:27:43.181Z,50.96
2018-06-29T04:28:43.416Z,50.58
2018-06-29T04:29:43.653Z,49.90
2018-06-29T04:30:43.889Z,50.87
2018-06-29T04:31:44.125Z,49.61
2018-06-29T04:32:44.383Z,50.09
2018-06-29T04:33:44.602Z,49.51
2018-06-29T04:34:44.839Z,48.95
2018-06-29T04:35:45.075Z,48.20
2018-06-29T04:36:45.311Z,48.30
2018-06-29T04:37:45.547Z,48.61
2018-06-29T04:38:45.782Z,47.74
2018-06-29T04:39:46.025Z,47.34
2018-06-29T04:40:46.266Z,46.78
2018-06-29T04:41:46.491Z,46.78
2018-06-29T04:42:46.732Z,47.74
2018-06-29T04:43:46.968Z,46.98
2018-06-29T04:44:47.213Z,46.59
2018-06-29T04:45:47.447Z,46.50
2018-06-29T04:46:47.687Z,45.64
2018-06-29T04:47:47.932Z,45.81
2018-06-29T04:48:48.176Z,46.18
2018-06-29T04:49:48.415Z,46.78
2018-06-29T04:50:48.658Z,46.30
2018-06-29T04:51:48.897Z,46.51
2018-06-29T04:52:49.136Z,46.42
2018-06-29T04:53:49.370Z,44.59
2018-06-29T04:54:49.612Z,44.98
2018-06-29T04:55:49.856Z,44.40
2018-06-29T04:56:50.096Z,43.91
2018-06-29T04:57:50.338Z,43.91
2018-06-29T04:58:50.577Z,43.91
2018-06-29T04:59:50.817Z,43.91
2018-06-29T05:00:51.084Z,44.40
2018-06-29T05:01:51.297Z,43.74
2018-06-29T05:02:51.538Z,43.35
2018-06-29T05:03:51.775Z,44.24
2018-06-29T05:04:52.017Z,43.27
2018-06-29T05:05:52.259Z,43.95
2018-06-29T05:06:52.498Z,42.69
2018-06-29T05:07:52.739Z,43.18
2018-06-29T05:08:52.982Z,43.47
2018-06-29T05:09:53.222Z,45.03
2018-06-29T05:10:53.462Z,43.76
2018-06-29T05:11:53.704Z,42.41
2018-06-29T05:12:53.945Z,42.79
2018-06-29T05:13:54.188Z,41.56
2018-06-29T05:14:54.433Z,41.54
2018-06-29T05:15:54.670Z,41.75
2018-06-29T05:16:54.909Z,41.66
2018-06-29T05:17:55.152Z,41.95
2018-06-29T05:18:55.395Z,40.78
2018-06-29T05:19:55.633Z,41.17
2018-06-29T05:20:55.876Z,42.14
2018-06-29T05:21:56.116Z,41.67
2018-06-29T05:22:56.356Z,40.60
2018-06-29T05:23:56.600Z,40.31
2018-06-29T05:24:56.838Z,41.67
2018-06-29T05:25:57.077Z,40.82
2018-06-29T05:26:57.319Z,39.08
2018-06-29T05:27:57.565Z,39.96
2018-06-29T05:28:57.799Z,39.49
2018-06-29T05:29:58.040Z,38.73
2018-06-29T05:30:58.283Z,39.02
2018-06-29T05:31:58.525Z,38.71
2018-06-29T05:32:58.767Z,37.67
2018-06-29T05:33:59.009Z,37.43
2018-06-29T05:34:59.253Z,38.98
2018-06-29T05:35:59.571Z,38.79
2018-06-29T05:36:59.731Z,38.49
2018-06-29T05:37:59.975Z,39.08
2018-06-29T05:39:00.217Z,39.55
2018-06-29T05:40:00.459Z,40.43
2018-06-29T05:41:00.700Z,40.64
2018-06-29T05:42:00.942Z,38.96
2018-06-29T05:43:01.189Z,38.98
2018-06-29T05:44:01.432Z,39.08
2018-06-29T05:45:01.680Z,40.04
2018-06-29T05:46:01.919Z,39.26
2018-06-29T05:47:02.236Z,38.20
2018-06-29T05:48:02.403Z,38.10
2018-06-29T05:49:02.644Z,38.40
2018-06-29T05:50:02.886Z,38.96
2018-06-29T05:51:03.130Z,39.18
2018-06-29T05:52:03.377Z,39.57
2018-06-29T05:53:03.630Z,39.82
2018-06-29T05:54:03.851Z,38.77
2018-06-29T05:55:04.105Z,39.55
2018-06-29T05:56:04.340Z,39.26
2018-06-29T05:57:04.629Z,39.08
2018-06-29T05:58:04.809Z,39.65
2018-06-29T05:59:05.050Z,39.45
2018-06-29T06:00:05.294Z,39.45
2018-06-29T06:01:05.538Z,39.82
2018-06-29T06:02:05.791Z,39.36
2018-06-29T06:03:06.026Z,40.04
2018-06-29T06:04:06.266Z,40.11
2018-06-29T06:05:06.506Z,40.41
2018-06-29T06:06:06.748Z,41.09
2018-06-29T06:07:06.994Z,41.36
2018-06-29T06:08:07.235Z,41.81
2018-06-29T06:09:07.478Z,43.25
2018-06-29T06:10:07.770Z,43.23
2018-06-29T06:11:07.958Z,43.44
2018-06-29T06:12:08.201Z,43.35
2018-06-29T06:13:08.445Z,43.23
2018-06-29T06:14:08.685Z,43.25
2018-06-29T06:15:08.933Z,43.25
2018-06-29T06:16:09.238Z,43.08
2018-06-29T06:17:09.436Z,43.29
2018-06-29T06:18:09.659Z,41.66
2018-06-29T06:19:09.894Z,41.07
2018-06-29T06:20:10.135Z,41.09
2018-06-29T06:21:10.380Z,40.53
2018-06-29T06:22:10.621Z,39.28
2018-06-29T06:23:10.860Z,39.69
2018-06-29T06:24:11.102Z,38.69
2018-06-29T06:25:11.353Z,39.00
2018-06-29T06:26:11.580Z,39.47
2018-06-29T06:27:11.820Z,39.55
2018-06-29T06:28:12.060Z,39.55
2018-06-29T06:29:12.303Z,39.55
2018-06-29T06:30:12.546Z,39.92
2018-06-29T06:31:12.788Z,40.29
2018-06-29T06:32:13.036Z,41.63
2018-06-29T06:33:13.297Z,41.93
2018-06-29T06:34:13.507Z,42.69
2018-06-29T06:35:13.749Z,42.79
2018-06-29T06:36:13.994Z,42.38
2018-06-29T06:37:14.231Z,42.32
2018-06-29T06:38:14.473Z,41.36
2018-06-29T06:39:14.716Z,41.19
2018-06-29T06:40:14.949Z,39.84
2018-06-29T06:41:15.196Z,39.37
2018-06-29T06:42:15.438Z,38.69
2018-06-29T06:43:15.682Z,38.28
2018-06-29T06:44:15.916Z,39.16
2018-06-29T06:45:16.159Z,38.77
2018-06-29T06:46:16.406Z,39.53
2018-06-29T06:47:16.639Z,39.82
2018-06-29T06:48:16.882Z,39.62
2018-06-29T06:49:17.128Z,38.67
2018-06-29T06:50:17.397Z,37.99
2018-06-29T06:51:17.604Z,37.40
2018-06-29T06:52:17.847Z,37.22
2018-06-29T06:53:18.090Z,37.40
2018-06-29T06:54:18.334Z,38.20
2018-06-29T06:55:18.570Z,37.77
2018-06-29T06:56:18.811Z,38.14
2018-06-29T06:57:19.048Z,38.98
2018-06-29T06:58:19.290Z,39.47
2018-06-29T06:59:19.584Z,40.23
2018-06-29T07:00:19.774Z,40.99
2018-06-29T07:01:20.017Z,41.28
2018-06-29T07:02:20.254Z,41.63
2018-06-29T07:03:20.493Z,42.99
2018-06-29T07:04:20.732Z,43.16
2018-06-29T07:05:20.974Z,44.14
2018-06-29T07:06:21.212Z,43.95
2018-06-29T07:07:22.116Z,43.73
2018-06-29T07:08:21.694Z,43.95
2018-06-29T07:09:21.934Z,43.85
2018-06-29T07:10:22.174Z,44.79
2018-06-29T07:11:22.414Z,44.85
2018-06-29T07:12:22.668Z,45.92
2018-06-29T07:13:22.899Z,46.11
2018-06-29T07:14:23.136Z,46.14
2018-06-29T07:15:23.379Z,46.31
2018-06-29T07:16:23.617Z,46.09
2018-06-29T07:17:23.856Z,46.67
2018-06-29T07:18:24.094Z,46.86
2018-06-29T07:19:24.333Z,47.64
2018-06-29T07:20:24.571Z,46.96
2018-06-29T07:21:24.809Z,47.42
2018-06-29T07:22:25.046Z,47.33
2018-06-29T07:23:25.286Z,47.20
2018-06-29T07:24:25.548Z,47.11
2018-06-29T07:25:25.778Z,47.20
2018-06-29T07:26:26.009Z,47.57
2018-06-29T07:27:26.248Z,47.77
2018-06-29T07:28:26.489Z,48.35
2018-06-29T07:29:26.724Z,47.77
2018-06-29T07:30:26.962Z,48.71
2018-06-29T07:31:27.198Z,48.83
2018-06-29T07:32:27.441Z,48.44
2018-06-29T07:33:27.672Z,48.64
2018-06-29T07:34:27.910Z,48.83
2018-06-29T07:35:28.147Z,48.18
2018-06-29T07:36:28.383Z,47.57
2018-06-29T07:37:28.620Z,46.99
2018-06-29T07:38:28.856Z,46.99
2018-06-29T07:39:29.093Z,48.35
2018-06-29T07:40:29.332Z,47.77
2018-06-29T07:41:29.568Z,46.80
2018-06-29T07:42:29.806Z,46.48
2018-06-29T07:43:30.042Z,46.58
2018-06-29T07:44:30.282Z,46.80
2018-06-29T07:45:30.515Z,46.19
2018-06-29T07:46:30.758Z,44.47
2018-06-29T07:47:30.989Z,44.47
2018-06-29T07:48:31.223Z,43.99
2018-06-29T07:49:31.462Z,43.31
2018-06-29T07:50:31.690Z,43.12
2018-06-29T07:51:31.925Z,43.21
2018-06-29T07:52:32.163Z,42.92
2018-06-29T07:53:32.401Z,42.82
2018-06-29T07:54:32.638Z,42.72
2018-06-29T07:55:32.872Z,41.37
2018-06-29T07:56:33.119Z,41.74
2018-06-29T07:57:33.347Z,41.64
2018-06-29T07:58:33.660Z,41.16
2018-06-29T07:59:33.822Z,41.56
2018-06-29T08:00:34.057Z,41.66
2018-06-29T08:01:34.293Z,41.66
2018-06-29T08:02:34.608Z,41.37
2018-06-29T08:03:34.770Z,40.89
2018-06-29T08:04:35.007Z,40.21
2018-06-29T08:05:35.241Z,40.21
2018-06-29T08:06:35.478Z,40.40
2018-06-29T08:07:35.717Z,40.48
2018-06-29T08:08:35.951Z,41.37
2018-06-29T08:09:36.189Z,42.34
2018-06-29T08:10:36.438Z,41.86
2018-06-29T08:11:36.662Z,41.35
2018-06-29T08:12:36.900Z,41.25
2018-06-29T08:13:37.135Z,42.05
2018-06-29T08:14:37.371Z,42.34
2018-06-29T08:15:37.609Z,42.22
2018-06-29T08:16:37.845Z,41.17
2018-06-29T08:17:38.083Z,42.03
2018-06-29T08:18:38.317Z,41.56
2018-06-29T08:19:38.553Z,42.14
2018-06-29T08:20:38.793Z,40.99
2018-06-29T08:21:39.030Z,40.89
2018-06-29T08:22:39.266Z,40.40
2018-06-29T08:23:39.503Z,41.27
2018-06-29T08:24:39.743Z,40.89
2018-06-29T08:25:39.981Z,41.27
2018-06-29T08:26:40.218Z,40.79
2018-06-29T08:27:40.454Z,40.69
2018-06-29T08:28:40.689Z,41.17
2018-06-29T08:29:40.926Z,41.00
2018-06-29T08:30:41.159Z,40.91
2018-06-29T08:31:41.393Z,40.71
2018-06-29T08:32:41.629Z,41.30
2018-06-29T08:33:41.864Z,40.81
2018-06-29T08:34:42.099Z,40.81
2018-06-29T08:35:42.334Z,41.30
2018-06-29T08:36:42.570Z,41.58
2018-06-29T08:37:42.804Z,41.30
2018-06-29T08:38:43.094Z,40.42
2018-06-29T08:39:43.280Z,39.94
2018-06-29T08:40:43.516Z,39.94
2018-06-29T08:41:43.753Z,40.13
2018-06-29T08:42:43.991Z,40.91
2018-06-29T08:43:44.227Z,40.52
2018-06-29T08:44:44.465Z,40.52
2018-06-29T08:45:44.703Z,40.71
2018-06-29T08:46:45.017Z,40.61
2018-06-29T08:47:45.173Z,39.84
2018-06-29T08:48:45.409Z,40.13
2018-06-29T08:49:45.733Z,40.61
2018-06-29T08:50:45.882Z,39.74
2018-06-29T08:51:46.117Z,40.13
2018-06-29T08:52:46.355Z,40.92
2018-06-29T08:53:46.592Z,39.67
2018-06-29T08:54:46.829Z,39.76
2018-06-29T08:55:47.067Z,38.79
2018-06-29T08:56:47.303Z,39.67
2018-06-29T08:57:47.542Z,39.57
2018-06-29T08:58:47.822Z,39.47
2018-06-29T08:59:48.018Z,39.57
2018-06-29T09:00:48.253Z,39.28
2018-06-29T09:01:48.489Z,39.86
2018-06-29T09:02:48.725Z,39.94
2018-06-29T09:03:48.960Z,40.52
2018-06-29T09:04:49.249Z,41.80
2018-06-29T09:05:49.430Z,40.05
2018-06-29T09:06:49.668Z,40.05
2018-06-29T09:07:49.905Z,39.37
2018-06-29T09:08:50.145Z,39.98
2018-06-29T09:09:50.383Z,39.69
2018-06-29T09:10:50.627Z,39.69
2018-06-29T09:11:50.857Z,39.76
2018-06-29T09:12:51.095Z,39.18
2018-06-29T09:13:51.331Z,39.78
2018-06-29T09:14:51.571Z,39.59
2018-06-29T09:15:51.805Z,38.42
2018-06-29T09:16:52.042Z,37.84
2018-06-29T09:17:52.278Z,37.45
2018-06-29T09:18:52.513Z,37.55
2018-06-29T09:19:52.756Z,38.42
2018-06-29T09:20:52.991Z,37.74
2018-06-29T09:21:53.227Z,37.35
2018-06-29T09:22:53.464Z,38.13
2018-06-29T09:23:53.702Z,38.42
2018-06-29T09:24:53.937Z,38.83
2018-06-29T09:25:54.174Z,38.93
2018-06-29T09:26:54.416Z,38.54
2018-06-29T09:27:54.652Z,38.17
2018-06-29T09:28:54.886Z,38.56
2018-06-29T09:29:55.128Z,37.98
2018-06-29T09:30:55.362Z,37.59
2018-06-29T09:31:55.610Z,37.78
2018-06-29T09:32:55.833Z,37.39
2018-06-29T09:33:56.067Z,37.20
2018-06-29T09:34:56.305Z,37.59
2018-06-29T09:35:56.544Z,37.41
2018-06-29T09:36:56.785Z,37.10
2018-06-29T09:37:57.019Z,36.81
2018-06-29T09:38:57.256Z,36.91
2018-06-29T09:39:57.496Z,37.01
2018-06-29T09:40:57.730Z,36.52
2018-06-29T09:41:57.965Z,36.44
2018-06-29T09:42:58.202Z,37.12
2018-06-29T09:43:58.439Z,36.32
2018-06-29T09:44:58.676Z,36.63
2018-06-29T09:45:58.914Z,36.52
2018-06-29T09:46:59.152Z,36.91
2018-06-29T09:47:59.429Z,37.88
2018-06-29T09:48:59.614Z,36.83
2018-06-29T09:49:59.851Z,37.10
2018-06-29T09:51:00.088Z,37.78
2018-06-29T09:52:00.321Z,38.17
2018-06-29T09:53:00.557Z,37.49
2018-06-29T09:54:00.878Z,35.66
2018-06-29T09:55:01.050Z,34.97
2018-06-29T09:56:01.291Z,35.84
2018-06-29T09:57:01.528Z,37.12
2018-06-29T09:58:01.765Z,36.42
2018-06-29T09:59:01.998Z,36.15
2018-06-29T10:00:02.236Z,36.81
2018-06-29T10:01:02.547Z,36.15
2018-06-29T10:02:02.710Z,34.77
2018-06-29T10:03:02.946Z,35.35
2018-06-29T10:04:03.186Z,35.16
2018-06-29T10:05:03.420Z,34.97
2018-06-29T10:06:03.668Z,35.16
2018-06-29T10:07:03.898Z,35.64
2018-06-29T10:08:04.133Z,36.11
2018-06-29T10:09:04.375Z,36.89
2018-06-29T10:10:04.614Z,36.32
2018-06-29T10:11:04.851Z,35.94
2018-06-29T10:12:05.087Z,36.13
2018-06-29T10:13:05.324Z,36.22
2018-06-29T10:14:05.576Z,36.52
2018-06-29T10:15:05.795Z,36.32
2018-06-29T10:16:06.035Z,35.55
2018-06-29T10:17:06.272Z,36.52
2018-06-29T10:18:06.509Z,36.83
2018-06-29T10:19:06.745Z,34.88
2018-06-29T10:20:07.108Z,34.79
2018-06-29T10:21:07.222Z,34.50
2018-06-29T10:22:07.513Z,34.59
2018-06-29T10:23:07.695Z,34.69
2018-06-29T10:24:07.972Z,34.98
2018-06-29T10:25:08.180Z,35.47
2018-06-29T10:26:08.407Z,36.05
2018-06-29T10:27:08.646Z,36.44
2018-06-29T10:28:08.938Z,36.63
2018-06-29T10:29:09.123Z,36.24
2018-06-29T10:30:09.361Z,36.83
2018-06-29T10:31:09.597Z,36.73
2018-06-29T10:32:09.840Z,36.83
2018-06-29T10:33:10.072Z,36.34
2018-06-29T10:34:10.309Z,35.00
2018-06-29T10:35:10.553Z,34.59
2018-06-29T10:36:10.786Z,35.10
2018-06-29T10:37:11.024Z,35.58
2018-06-29T10:38:11.262Z,35.68
2018-06-29T10:39:11.496Z,35.10
2018-06-29T10:40:11.732Z,35.78
2018-06-29T10:41:11.971Z,35.99
2018-06-29T10:42:12.209Z,34.82
2018-06-29T10:43:12.450Z,34.80
2018-06-29T10:44:12.690Z,34.32
2018-06-29T10:45:12.930Z,34.61
2018-06-29T10:46:13.159Z,35.10
2018-06-29T10:47:13.400Z,35.49
2018-06-29T10:48:13.641Z,35.00
2018-06-29T10:49:13.882Z,34.90
2018-06-29T10:50:14.116Z,34.98
2018-06-29T10:51:14.360Z,35.08
2018-06-29T10:52:14.597Z,35.76
2018-06-29T10:53:14.834Z,35.96
2018-06-29T10:54:15.077Z,36.16
2018-06-29T10:55:15.308Z,36.36
2018-06-29T10:56:15.548Z,36.26
2018-06-29T10:57:15.785Z,36.55
2018-06-29T10:58:16.023Z,36.05
2018-06-29T10:59:16.259Z,36.16
2018-06-29T11:00:16.496Z,36.26
2018-06-29T11:01:16.734Z,36.54
2018-06-29T11:02:16.973Z,36.54
2018-06-29T11:03:17.208Z,35.97
2018-06-29T11:04:17.447Z,36.24
2018-06-29T11:05:17.683Z,35.88
2018-06-29T11:06:17.922Z,36.05
2018-06-29T11:07:18.159Z,36.55
2018-06-29T11:08:18.397Z,35.78
2018-06-29T11:09:18.634Z,35.19
2018-06-29T11:10:18.874Z,35.97
2018-06-29T11:11:19.115Z,35.70
2018-06-29T11:12:19.360Z,35.97
2018-06-29T11:13:19.591Z,35.50
2018-06-29T11:14:19.826Z,35.21
2018-06-29T11:15:20.062Z,34.61
2018-06-29T11:16:20.302Z,35.60
2018-06-29T11:17:20.540Z,34.82
2018-06-29T11:18:20.773Z,36.18
2018-06-29T11:19:21.012Z,36.28
2018-06-29T11:20:21.251Z,35.31
2018-06-29T11:21:21.488Z,34.92
2018-06-29T11:22:21.729Z,34.33
2018-06-29T11:23:21.966Z,34.72
2018-06-29T11:24:22.203Z,34.53
2018-06-29T11:25:22.438Z,34.53
2018-06-29T11:26:22.680Z,34.33
2018-06-29T11:27:22.915Z,34.53
2018-06-29T11:28:23.151Z,34.72
2018-06-29T11:29:23.388Z,35.02
2018-06-29T11:30:23.719Z,34.92
2018-06-29T11:31:23.864Z,35.11
2018-06-29T11:32:24.101Z,35.03
2018-06-29T11:33:24.338Z,34.35
2018-06-29T11:34:24.576Z,34.55
2018-06-29T11:35:24.820Z,35.13
2018-06-29T11:36:25.050Z,34.45
2018-06-29T11:37:25.288Z,34.94
2018-06-29T11:38:25.525Z,33.96
2018-06-29T11:39:25.762Z,33.18
2018-06-29T11:40:26.004Z,33.28
2018-06-29T11:41:26.235Z,34.35
2018-06-29T11:42:26.533Z,35.11
2018-06-29T11:43:26.710Z,34.84
2018-06-29T11:44:26.952Z,34.63
2018-06-29T11:45:27.185Z,34.33
2018-06-29T11:46:27.420Z,34.63
2018-06-29T11:47:27.660Z,34.53
2018-06-29T11:48:27.897Z,33.95
2018-06-29T11:49:28.132Z,33.26
2018-06-29T11:50:28.367Z,34.24
2018-06-29T11:51:28.625Z,34.63
2018-06-29T11:52:28.872Z,35.21
2018-06-29T11:53:29.135Z,34.82
2018-06-29T11:54:29.319Z,34.33
2018-06-29T11:55:29.562Z,34.63
2018-06-29T11:56:29.796Z,34.84
2018-06-29T11:57:30.037Z,34.64
2018-06-29T11:58:30.274Z,34.84
2018-06-29T11:59:30.511Z,34.84
2018-06-29T12:00:30.756Z,35.13
2018-06-29T12:01:30.994Z,35.02
2018-06-29T12:02:31.230Z,34.94
2018-06-29T12:03:31.469Z,36.20
2018-06-29T12:04:31.703Z,35.71
2018-06-29T12:05:31.942Z,35.61
2018-06-29T12:06:32.178Z,35.61
2018-06-29T12:07:32.418Z,35.23
2018-06-29T12:08:32.655Z,34.94
2018-06-29T12:09:32.894Z,34.16
2018-06-29T12:10:33.133Z,33.48
2018-06-29T12:11:33.369Z,34.06
2018-06-29T12:12:33.604Z,34.45
2018-06-29T12:13:33.841Z,34.27
2018-06-29T12:14:34.079Z,34.55
2018-06-29T12:15:34.316Z,34.64
2018-06-29T12:16:34.557Z,34.94
2018-06-29T12:17:34.792Z,34.25
2018-06-29T12:18:35.030Z,33.77
2018-06-29T12:19:35.264Z,34.08
2018-06-29T12:20:35.503Z,34.47
2018-06-29T12:21:35.746Z,34.76
2018-06-29T12:22:35.984Z,34.55
2018-06-29T12:23:36.221Z,33.98
2018-06-29T12:24:36.459Z,34.27
2018-06-29T12:25:36.785Z,34.95
2018-06-29T12:26:36.931Z,34.37
2018-06-29T12:27:37.167Z,34.37
2018-06-29T12:28:37.406Z,34.19
2018-06-29T12:29:37.645Z,33.41
2018-06-29T12:30:37.884Z,33.70
2018-06-29T12:31:38.123Z,34.40
2018-06-29T12:32:38.362Z,34.58
2018-06-29T12:33:38.600Z,34.76
2018-06-29T12:34:38.837Z,35.15
2018-06-29T12:35:39.073Z,35.16
2018-06-29T12:36:39.313Z,34.68
2018-06-29T12:37:39.555Z,34.88
2018-06-29T12:38:39.794Z,34.97
2018-06-29T12:39:40.031Z,34.69
2018-06-29T12:40:40.273Z,34.59
2018-06-29T12:41:40.521Z,33.90
2018-06-29T12:42:40.747Z,34.48
2018-06-29T12:43:40.983Z,33.51
2018-06-29T12:44:41.222Z,34.39
2018-06-29T12:45:41.459Z,34.29
2018-06-29T12:46:41.697Z,34.88
2018-06-29T12:47:41.937Z,34.09
2018-06-29T12:48:42.170Z,34.00
2018-06-29T12:49:42.408Z,33.90
2018-06-29T12:50:42.644Z,33.82
2018-06-29T12:51:42.873Z,34.48
2018-06-29T12:52:43.133Z,34.39
2018-06-29T12:53:43.374Z,34.40
2018-06-29T12:54:43.616Z,35.08
2018-06-29T12:55:43.863Z,34.69